createdAt,value
2023-01-31T00:00:08.035Z,18.82
2023-01-31T00:01:08.007Z,18.82
2023-01-31T00:02:07.018Z,18.82
2023-01-31T00:03:06.987Z,18.83
2023-01-31T00:04:06.913Z,18.83
2023-01-31T00:05:06.889Z,18.78
2023-01-31T00:06:06.849Z,18.80
2023-01-31T00:07:06.800Z,18.80
2023-01-31T00:08:06.781Z,18.83
2023-01-31T00:09:06.754Z,18.80
2023-01-31T00:10:06.715Z,18.80
2023-01-31T00:11:06.708Z,18.80
2023-01-31T00:12:06.728Z,18.83
2023-01-31T00:13:06.723Z,18.80
2023-01-31T00:14:06.602Z,18.83
2023-01-31T00:15:06.589Z,18.80
2023-01-31T00:16:06.633Z,18.83
2023-01-31T00:17:06.516Z,18.80
2023-01-31T00:18:06.490Z,18.80
2023-01-31T00:19:07.011Z,18.80
2023-01-31T00:20:06.464Z,18.80
2023-01-31T01:12:04.945Z,18.77
2023-01-31T01:13:04.982Z,18.76
2023-01-31T01:14:04.854Z,18.77
2023-01-31T01:15:04.823Z,18.77
2023-01-31T01:16:04.866Z,18.80
2023-01-31T01:17:04.771Z,18.77
2023-01-31T02:26:03.049Z,18.82
2023-01-31T02:28:02.994Z,18.82
2023-01-31T02:29:02.965Z,18.83
2023-01-31T02:30:02.937Z,18.82
2023-01-31T02:31:02.958Z,18.83
2023-01-31T02:32:02.923Z,18.84
2023-01-31T02:33:02.838Z,18.84
2023-01-31T02:34:02.814Z,18.84
2023-01-31T02:35:02.792Z,18.86
2023-01-31T02:36:02.747Z,18.86
2023-01-31T02:37:02.713Z,18.86
2023-01-31T02:38:02.669Z,18.86
2023-01-31T02:39:02.623Z,18.84
2023-01-31T02:40:02.589Z,18.91
2023-01-31T02:41:02.552Z,18.87
2023-01-31T02:42:02.499Z,18.88
2023-01-31T02:43:02.497Z,18.86
2023-01-31T02:44:02.415Z,18.91
2023-01-31T02:45:02.579Z,18.88
2023-01-31T02:46:02.378Z,18.88
2023-01-31T02:47:02.297Z,18.90
2023-01-31T02:48:02.230Z,18.90
2023-01-31T02:49:02.185Z,18.91
2023-01-31T02:50:02.144Z,18.90
2023-01-31T02:51:02.104Z,18.90
2023-01-31T02:52:02.041Z,18.90
2023-01-31T02:53:02.015Z,18.88
2023-01-31T02:54:01.941Z,18.91
2023-01-31T02:55:01.906Z,18.90
2023-01-31T02:56:01.849Z,18.91
2023-01-31T02:57:02.561Z,18.91
2023-01-31T02:58:01.707Z,18.93
2023-01-31T02:59:01.647Z,18.93
2023-01-31T03:00:01.612Z,18.93
2023-01-31T03:01:01.550Z,18.93
2023-01-31T03:02:01.575Z,18.93
2023-01-31T03:03:01.431Z,18.93
2023-01-31T03:04:01.388Z,18.91
2023-01-31T03:05:01.378Z,18.93
2023-01-31T03:06:01.253Z,18.94
2023-01-31T03:07:01.191Z,18.94
2023-01-31T03:08:01.581Z,18.96
2023-01-31T03:09:01.072Z,18.94
2023-01-31T03:10:01.019Z,18.97
2023-01-31T03:11:00.980Z,18.98
2023-01-31T03:12:00.896Z,18.98
2023-01-31T03:13:00.834Z,18.97
2023-01-31T03:14:00.862Z,19.00
2023-01-31T03:15:01.063Z,18.98
2023-01-31T03:16:00.715Z,19.00
2023-01-31T03:17:00.645Z,18.97
2023-01-31T03:18:00.523Z,18.98
2023-01-31T03:19:00.449Z,19.00
2023-01-31T03:20:00.393Z,18.98
2023-01-31T03:21:00.328Z,18.98
2023-01-31T03:22:00.270Z,18.96
2023-01-31T03:23:00.218Z,19.00
2023-01-31T03:24:00.156Z,18.97
2023-01-31T03:25:00.093Z,19.00
2023-01-31T03:26:00.018Z,19.00
2023-01-31T03:26:59.959Z,19.00
2023-01-31T03:27:59.896Z,19.00
2023-01-31T03:28:59.813Z,18.97
2023-01-31T03:29:59.743Z,18.98
2023-01-31T03:30:59.742Z,18.97
2023-01-31T03:31:59.776Z,18.98
2023-01-31T03:32:59.635Z,19.00
2023-01-31T03:33:59.471Z,19.00
2023-01-31T03:34:59.399Z,19.01
2023-01-31T03:35:59.324Z,18.98
2023-01-31T03:36:59.272Z,19.01
2023-01-31T03:37:59.247Z,18.98
2023-01-31T03:38:59.116Z,19.01
2023-01-31T03:39:59.053Z,19.00
2023-01-31T03:40:58.974Z,19.01
2023-01-31T03:41:58.934Z,19.00
2023-01-31T03:42:58.847Z,18.98
2023-01-31T03:43:58.804Z,19.00
2023-01-31T03:44:58.691Z,19.00
2023-01-31T03:45:58.646Z,19.01
2023-01-31T03:46:58.574Z,19.01
2023-01-31T03:47:58.520Z,19.03
2023-01-31T03:48:58.384Z,19.00
2023-01-31T03:49:58.303Z,18.98
2023-01-31T03:50:58.243Z,19.01
2023-01-31T03:51:58.156Z,19.00
2023-01-31T03:52:58.077Z,19.00
2023-01-31T03:53:58.024Z,19.04
2023-01-31T03:54:57.917Z,19.05
2023-01-31T03:55:57.841Z,19.01
2023-01-31T03:56:57.775Z,19.03
2023-01-31T03:57:57.715Z,19.03
2023-01-31T03:58:57.627Z,19.04
2023-01-31T03:59:57.560Z,19.04
2023-01-31T04:00:57.467Z,19.04
2023-01-31T04:01:57.440Z,19.01
2023-01-31T04:02:57.426Z,19.01
2023-01-31T04:03:57.262Z,19.01
2023-01-31T04:04:57.189Z,19.01
2023-01-31T04:05:57.154Z,19.05
2023-01-31T04:06:57.028Z,19.03
2023-01-31T04:07:56.964Z,19.04
2023-01-31T04:08:56.898Z,19.04
2023-01-31T04:09:56.906Z,19.05
2023-01-31T04:10:56.753Z,19.04
2023-01-31T04:11:56.678Z,19.05
2023-01-31T04:12:56.606Z,19.05
2023-01-31T04:13:56.537Z,19.07
2023-01-31T04:14:56.465Z,19.04
2023-01-31T04:15:56.452Z,19.05
2023-01-31T04:16:56.311Z,19.07
2023-01-31T04:17:56.236Z,19.04
2023-01-31T04:18:57.106Z,19.04
2023-01-31T04:19:56.127Z,19.05
2023-01-31T04:20:56.020Z,19.05
2023-01-31T04:21:56.589Z,19.07
2023-01-31T04:22:55.907Z,19.07
2023-01-31T04:23:55.847Z,19.07
2023-01-31T04:24:55.806Z,19.05
2023-01-31T04:25:55.718Z,19.05
2023-01-31T04:26:55.648Z,19.07
2023-01-31T04:27:55.578Z,19.07
2023-01-31T04:28:55.497Z,19.10
2023-01-31T04:29:55.426Z,19.07
2023-01-31T04:30:55.393Z,19.08
2023-01-31T04:31:55.348Z,19.08
2023-01-31T04:32:55.203Z,19.08
2023-01-31T04:33:55.211Z,19.08
2023-01-31T04:34:55.089Z,19.10
2023-01-31T04:35:55.008Z,19.08
2023-01-31T04:36:54.938Z,19.08
2023-01-31T04:37:54.878Z,19.08
2023-01-31T04:38:54.796Z,19.11
2023-01-31T04:39:54.773Z,19.10
2023-01-31T04:40:54.677Z,19.11
2023-01-31T04:41:54.623Z,19.10
2023-01-31T04:42:54.556Z,19.07
2023-01-31T04:43:54.556Z,19.10
2023-01-31T04:44:54.468Z,19.08
2023-01-31T04:45:55.336Z,19.08
2023-01-31T04:46:54.254Z,19.10
2023-01-31T04:47:54.201Z,19.10
2023-01-31T04:48:54.128Z,19.08
2023-01-31T04:49:54.123Z,19.08
2023-01-31T04:50:53.981Z,19.10
2023-01-31T04:51:53.920Z,19.10
2023-01-31T04:52:53.840Z,19.07
2023-01-31T05:01:53.161Z,19.10
2023-01-31T05:02:53.240Z,19.13
2023-01-31T05:03:53.042Z,19.10
2023-01-31T05:04:52.977Z,19.10
2023-01-31T05:05:52.910Z,19.10
2023-01-31T05:06:52.841Z,19.10
2023-01-31T05:07:52.786Z,19.11
2023-01-31T05:08:52.744Z,19.11
2023-01-31T05:09:52.646Z,19.10
2023-01-31T05:10:52.595Z,19.11
2023-01-31T05:11:52.543Z,19.11
2023-01-31T05:12:52.481Z,19.11
2023-01-31T05:13:52.637Z,19.11
2023-01-31T05:14:52.377Z,19.10
2023-01-31T05:15:52.381Z,19.11
2023-01-31T05:16:52.242Z,19.10
2023-01-31T05:17:52.233Z,19.11
2023-01-31T05:18:52.067Z,19.10
2023-01-31T05:19:52.011Z,19.13
2023-01-31T05:20:51.940Z,19.13
2023-01-31T05:21:51.861Z,19.11
2023-01-31T05:22:51.800Z,19.13
2023-01-31T05:23:52.637Z,19.14
2023-01-31T05:24:51.658Z,19.13
2023-01-31T05:25:51.599Z,19.13
2023-01-31T05:26:51.635Z,19.10
2023-01-31T05:27:51.472Z,19.14
2023-01-31T07:46:42.077Z,19.77
2023-01-31T07:52:41.578Z,19.63
2023-01-31T07:53:41.495Z,19.66
2023-01-31T10:54:32.327Z,21.81
2023-01-31T10:55:32.257Z,21.81
2023-01-31T10:56:32.204Z,21.89
2023-01-31T11:06:31.613Z,22.08
2023-01-31T11:07:31.572Z,22.12
2023-01-31T11:08:31.487Z,22.15
2023-01-31T11:09:31.505Z,22.15
2023-01-31T11:10:31.515Z,22.24
2023-01-31T12:53:23.864Z,20.79
2023-01-31T12:54:23.797Z,20.76
2023-01-31T12:55:23.870Z,20.75
2023-01-31T12:56:23.666Z,20.76
2023-01-31T12:57:23.565Z,20.75
2023-01-31T12:58:23.470Z,20.75
2023-01-31T12:59:23.367Z,20.71
2023-01-31T13:00:23.273Z,20.71
2023-01-31T13:01:23.238Z,20.72
2023-01-31T13:02:23.154Z,20.67
2023-01-31T13:03:23.092Z,20.65
2023-01-31T13:04:22.956Z,20.67
2023-01-31T13:05:23.846Z,20.64
2023-01-31T13:06:22.742Z,20.59
2023-01-31T13:07:22.648Z,20.62
2023-01-31T13:08:22.534Z,20.61
2023-01-31T13:09:22.441Z,20.58
2023-01-31T13:10:22.927Z,20.59
2023-01-31T13:11:22.270Z,20.56
2023-01-31T13:12:22.190Z,20.58
2023-01-31T13:13:22.094Z,20.55
2023-01-31T13:14:21.997Z,20.55
2023-01-31T13:15:22.189Z,20.56
2023-01-31T13:16:22.844Z,20.54
2023-01-31T13:17:21.723Z,20.54
2023-01-31T13:18:22.308Z,20.51
2023-01-31T13:19:21.537Z,20.48
2023-01-31T13:42:19.640Z,20.17
2023-01-31T13:52:18.966Z,20.14
2023-01-31T13:53:18.884Z,20.10
2023-01-31T13:54:18.834Z,20.14
2023-01-31T13:55:19.149Z,20.09
2023-01-31T13:56:18.689Z,20.10
2023-01-31T13:58:18.552Z,20.13
2023-01-31T13:59:18.484Z,20.14
2023-01-31T14:00:18.416Z,20.16
2023-01-31T14:01:18.389Z,20.14
2023-01-31T14:02:18.278Z,20.16
2023-01-31T14:03:18.210Z,20.16
2023-01-31T14:04:18.803Z,20.19
2023-01-31T14:05:18.408Z,20.17
2023-01-31T14:06:18.015Z,20.16
2023-01-31T14:07:17.948Z,20.16
2023-01-31T14:08:18.809Z,20.19
2023-01-31T14:09:17.806Z,20.20
2023-01-31T14:10:17.736Z,20.20
2023-01-31T14:11:17.692Z,20.14
2023-01-31T14:12:17.623Z,20.17
2023-01-31T14:13:17.545Z,20.14
2023-01-31T14:14:17.506Z,20.14
2023-01-31T14:15:17.417Z,20.16
2023-01-31T14:16:17.427Z,20.16
2023-01-31T14:17:17.290Z,20.14
2023-01-31T14:18:17.221Z,20.16
2023-01-31T14:19:17.147Z,20.13
2023-01-31T14:20:17.091Z,20.11
2023-01-31T14:21:16.994Z,20.14
2023-01-31T14:22:16.924Z,20.11
2023-01-31T14:23:16.934Z,20.07
2023-01-31T14:24:16.814Z,20.10
2023-01-31T14:25:16.755Z,20.11
2023-01-31T14:26:16.740Z,20.09
2023-01-31T14:27:16.626Z,20.09
2023-01-31T14:28:16.573Z,20.09
2023-01-31T14:29:16.507Z,20.06
2023-01-31T14:30:16.454Z,20.07
2023-01-31T14:31:16.459Z,20.06
2023-01-31T14:32:16.347Z,20.07
2023-01-31T14:33:16.268Z,20.06
2023-01-31T14:34:16.210Z,20.06
2023-01-31T14:35:16.165Z,20.06
2023-01-31T14:36:16.112Z,20.06
2023-01-31T14:37:16.139Z,20.06
2023-01-31T14:38:16.013Z,20.03
2023-01-31T14:39:15.943Z,20.03
2023-01-31T14:40:15.890Z,20.00
2023-01-31T14:41:15.827Z,20.03
2023-01-31T14:42:15.765Z,20.01
2023-01-31T14:43:15.725Z,20.03
2023-01-31T14:44:15.743Z,20.04
2023-01-31T14:45:15.608Z,20.01
2023-01-31T14:46:15.558Z,20.00
2023-01-31T14:47:15.522Z,20.00
2023-01-31T14:48:15.448Z,19.97
2023-01-31T14:49:15.391Z,20.00
2023-01-31T14:50:15.340Z,19.99
2023-01-31T14:51:15.282Z,20.00
2023-01-31T14:52:15.267Z,19.97
2023-01-31T14:53:15.183Z,19.93
2023-01-31T14:54:15.137Z,19.90
2023-01-31T14:55:15.087Z,19.90
2023-01-31T14:56:15.063Z,19.92
2023-01-31T14:57:15.018Z,19.87
2023-01-31T14:58:14.993Z,19.87
2023-01-31T14:59:14.935Z,19.86
2023-01-31T15:00:14.901Z,19.84
2023-01-31T15:01:14.864Z,19.84
2023-01-31T15:02:14.896Z,19.77
2023-01-31T15:03:14.871Z,19.83
2023-01-31T15:04:14.734Z,19.79
2023-01-31T15:05:14.720Z,19.76
2023-01-31T15:06:14.672Z,19.79
2023-01-31T15:07:14.646Z,19.76
2023-01-31T15:08:14.665Z,19.76
2023-01-31T15:09:14.588Z,19.74
2023-01-31T15:10:14.550Z,19.73
2023-01-31T15:11:14.518Z,19.72
2023-01-31T15:12:14.506Z,19.70
2023-01-31T15:13:14.461Z,19.69
2023-01-31T15:14:28.093Z,19.72
2023-01-31T15:15:15.342Z,19.70
2023-01-31T15:16:14.264Z,19.69
2023-01-31T15:17:31.675Z,19.70
2023-01-31T15:18:15.104Z,19.68
2023-01-31T15:19:14.055Z,19.65
2023-01-31T15:20:13.915Z,19.65
2023-01-31T15:21:13.836Z,19.65
2023-01-31T15:22:13.731Z,19.62
2023-01-31T15:23:13.653Z,19.65
2023-01-31T15:24:13.645Z,19.65
2023-01-31T15:25:13.556Z,19.62
2023-01-31T15:26:13.434Z,19.62
2023-01-31T15:27:13.316Z,19.61
2023-01-31T15:28:13.284Z,19.62
2023-01-31T15:29:13.245Z,19.61
2023-01-31T15:30:13.221Z,19.58
2023-01-31T15:31:13.230Z,19.56
2023-01-31T15:32:13.167Z,19.56
2023-01-31T15:33:13.149Z,19.53
2023-01-31T15:34:13.138Z,19.55
2023-01-31T15:35:13.117Z,19.53
2023-01-31T15:36:13.150Z,19.53
2023-01-31T15:37:13.086Z,19.53
2023-01-31T15:38:13.081Z,19.52
2023-01-31T15:39:13.039Z,19.52
2023-01-31T15:40:13.021Z,19.51
2023-01-31T15:41:12.991Z,19.49
2023-01-31T15:42:13.048Z,19.48
2023-01-31T15:43:12.956Z,19.48
2023-01-31T15:44:12.909Z,19.49
2023-01-31T15:45:12.867Z,19.49
2023-01-31T15:46:12.931Z,19.46
2023-01-31T15:47:12.826Z,19.46
2023-01-31T15:48:12.802Z,19.45
2023-01-31T15:49:12.829Z,19.41
2023-01-31T15:50:12.764Z,19.42
2023-01-31T15:51:12.739Z,19.41
2023-01-31T15:52:12.752Z,19.42
2023-01-31T15:53:12.671Z,19.39
2023-01-31T15:54:12.653Z,19.39
2023-01-31T15:55:12.613Z,19.38
2023-01-31T15:56:12.594Z,19.36
2023-01-31T15:57:12.570Z,19.38
2023-01-31T15:58:12.486Z,19.36
2023-01-31T15:59:12.869Z,19.35
2023-01-31T16:00:12.441Z,19.34
2023-01-31T16:01:12.455Z,19.34
2023-01-31T16:02:12.408Z,19.32
2023-01-31T16:03:12.279Z,19.32
2023-01-31T16:04:12.267Z,19.32
2023-01-31T16:05:12.216Z,19.29
2023-01-31T16:06:12.159Z,19.32
2023-01-31T16:07:12.100Z,19.31
2023-01-31T16:08:12.061Z,19.29
2023-01-31T16:09:11.994Z,19.26
2023-01-31T16:12:11.785Z,19.25
2023-01-31T16:13:11.712Z,19.25
2023-01-31T16:14:11.642Z,19.24
2023-01-31T16:15:11.870Z,19.25
2023-01-31T16:16:11.498Z,19.22
2023-01-31T16:23:11.863Z,19.19
2023-01-31T18:20:03.915Z,18.96
2023-01-31T18:21:03.866Z,18.97
2023-01-31T18:22:03.814Z,18.98
2023-01-31T18:23:03.766Z,18.96
2023-01-31T18:24:03.721Z,18.93
2023-01-31T18:25:03.694Z,18.97
2023-01-31T18:26:03.596Z,18.96
2023-01-31T18:27:03.559Z,18.96
2023-01-31T18:28:03.517Z,18.94
2023-01-31T18:29:03.436Z,18.94
2023-01-31T18:30:03.393Z,18.96
2023-01-31T18:31:03.535Z,18.97
2023-01-31T18:32:03.368Z,18.97
2023-01-31T18:33:03.230Z,18.96
2023-01-31T18:34:03.194Z,18.97
2023-01-31T18:35:03.128Z,18.96
2023-01-31T18:36:03.116Z,18.94
2023-01-31T18:37:03.032Z,18.94
2023-01-31T18:38:02.981Z,18.94
2023-01-31T18:39:03.005Z,18.93
2023-01-31T18:40:02.963Z,18.96
2023-01-31T18:41:02.848Z,18.93
2023-01-31T18:42:02.779Z,18.94
2023-01-31T18:43:02.738Z,18.93
2023-01-31T18:44:02.702Z,18.94
2023-01-31T18:45:02.647Z,18.94
2023-01-31T18:46:02.616Z,18.94
2023-01-31T18:47:02.639Z,18.94
2023-01-31T18:48:02.513Z,18.94
2023-01-31T18:49:02.464Z,18.93
2023-01-31T18:50:03.432Z,18.96
2023-01-31T18:51:02.375Z,18.91
2023-01-31T18:52:02.336Z,18.93
2023-01-31T18:53:02.279Z,18.91
2023-01-31T18:54:02.228Z,18.93
2023-01-31T18:55:02.184Z,18.90
2023-01-31T18:56:04.003Z,18.91
2023-01-31T18:57:02.062Z,18.91
2023-01-31T18:58:01.985Z,18.94
2023-01-31T18:59:01.906Z,18.94
2023-01-31T19:00:01.850Z,18.93
2023-01-31T19:01:01.818Z,18.93
2023-01-31T19:02:01.738Z,18.91
2023-01-31T19:03:01.610Z,18.94
2023-01-31T19:04:01.561Z,18.94
2023-01-31T19:05:01.564Z,18.91
2023-01-31T19:08:01.924Z,18.93
2023-01-31T19:42:58.592Z,18.87
2023-01-31T19:43:58.509Z,18.88
2023-01-31T19:44:58.440Z,18.87
2023-01-31T19:45:58.404Z,18.87
2023-01-31T19:46:58.283Z,18.88
2023-01-31T19:47:58.308Z,18.87
2023-01-31T19:48:58.147Z,18.87
2023-01-31T19:49:58.066Z,18.87
2023-01-31T19:50:57.983Z,18.87
2023-01-31T19:51:57.931Z,18.88
2023-01-31T19:52:57.839Z,18.87
2023-01-31T19:53:57.777Z,18.87
2023-01-31T19:54:57.717Z,18.87
2023-01-31T19:55:57.640Z,18.84
2023-01-31T19:56:57.565Z,18.86
2023-01-31T19:57:57.499Z,18.90
2023-01-31T19:58:57.427Z,18.86
2023-01-31T19:59:57.354Z,18.87
2023-01-31T20:00:57.328Z,18.87
2023-01-31T20:01:57.243Z,18.86
2023-01-31T20:02:57.124Z,18.86
2023-01-31T20:03:57.063Z,18.87
2023-01-31T20:04:57.876Z,18.86
2023-01-31T20:05:56.997Z,18.84
2023-01-31T20:06:56.940Z,18.87
2023-01-31T20:07:56.900Z,18.87
2023-01-31T20:08:56.866Z,18.84
2023-01-31T20:09:56.845Z,18.86
2023-01-31T20:10:56.816Z,18.87
2023-01-31T20:11:56.759Z,18.86
2023-01-31T20:12:56.719Z,18.86
2023-01-31T20:13:56.674Z,18.84
2023-01-31T20:14:56.631Z,18.87
2023-01-31T20:15:56.612Z,18.86
2023-01-31T20:16:56.606Z,18.86
2023-01-31T20:17:56.520Z,18.83
2023-01-31T20:18:56.491Z,18.86
2023-01-31T20:19:56.451Z,18.84
2023-01-31T20:20:56.421Z,18.86
2023-01-31T20:21:56.357Z,18.84
2023-01-31T20:22:56.319Z,18.86
2023-01-31T20:23:56.262Z,18.84
2023-01-31T20:24:56.231Z,18.86
2023-01-31T20:25:56.191Z,18.84
2023-01-31T20:26:56.221Z,18.84
2023-01-31T20:27:56.115Z,18.88
2023-01-31T20:28:56.077Z,18.86
2023-01-31T20:29:56.037Z,18.86
2023-01-31T20:30:56.048Z,18.86
2023-01-31T20:31:55.994Z,18.86
2023-01-31T20:32:55.941Z,18.87
2023-01-31T20:33:55.938Z,18.84
2023-01-31T20:34:55.860Z,18.84
2023-01-31T20:35:55.808Z,18.86
2023-01-31T20:36:55.776Z,18.84
2023-01-31T20:37:55.758Z,18.84
2023-01-31T20:38:55.694Z,18.87
2023-01-31T20:39:55.669Z,18.83
2023-01-31T20:40:55.625Z,18.84
2023-01-31T20:41:55.581Z,18.83
2023-01-31T20:42:55.548Z,18.84
2023-01-31T20:43:56.459Z,18.83
2023-01-31T20:44:55.452Z,18.82
2023-01-31T20:45:55.501Z,18.84
2023-01-31T20:46:55.392Z,18.84
2023-01-31T20:47:55.331Z,18.84
2023-01-31T20:48:55.284Z,18.84
2023-01-31T20:49:55.269Z,18.83
2023-01-31T20:50:55.207Z,18.83
2023-01-31T20:51:55.166Z,18.83
2023-01-31T20:52:55.147Z,18.84
2023-01-31T20:53:55.117Z,18.83
2023-01-31T20:54:55.081Z,18.86
2023-01-31T20:55:55.032Z,18.84
2023-01-31T20:56:55.098Z,18.84
2023-01-31T20:57:54.962Z,18.83
2023-01-31T20:58:54.935Z,18.87
2023-01-31T20:59:54.984Z,18.84
2023-01-31T21:00:54.858Z,18.83
2023-01-31T21:01:54.834Z,18.86
2023-01-31T21:02:54.878Z,18.86
2023-01-31T21:03:54.783Z,18.83
2023-01-31T21:04:54.749Z,18.86
2023-01-31T21:05:54.685Z,18.83
2023-01-31T21:06:54.657Z,18.86
2023-01-31T21:07:54.626Z,18.84
2023-01-31T21:08:54.570Z,18.83
2023-01-31T21:09:54.539Z,18.86
2023-01-31T21:10:54.498Z,18.84
2023-01-31T21:11:54.459Z,18.84
2023-01-31T21:12:54.434Z,18.86
2023-01-31T21:13:54.388Z,18.86
2023-01-31T21:14:54.366Z,18.84
2023-01-31T21:15:54.365Z,18.83
2023-01-31T21:16:54.296Z,18.86
2023-01-31T21:17:54.266Z,18.86
2023-01-31T21:18:54.232Z,18.87
2023-01-31T21:19:54.188Z,18.84
2023-01-31T21:20:54.165Z,18.87
2023-01-31T21:21:54.201Z,18.86
2023-01-31T21:22:54.099Z,18.87
2023-01-31T21:23:54.075Z,18.88
2023-01-31T21:24:54.048Z,18.87
2023-01-31T21:25:54.005Z,18.87
2023-01-31T21:26:53.982Z,18.84
2023-01-31T21:27:53.936Z,18.82
2023-01-31T21:28:53.892Z,18.83
2023-01-31T21:29:53.865Z,18.82
2023-01-31T21:30:53.869Z,18.83
2023-01-31T21:31:53.885Z,18.83
2023-01-31T21:32:53.764Z,18.84
2023-01-31T21:33:53.752Z,18.83
2023-01-31T21:34:53.680Z,18.80
2023-01-31T21:35:53.656Z,18.84
2023-01-31T21:36:53.625Z,18.86
2023-01-31T21:37:53.604Z,18.84
2023-01-31T21:38:53.591Z,18.86
2023-01-31T21:39:53.531Z,18.82
2023-01-31T21:40:53.491Z,18.86
2023-01-31T21:41:53.535Z,18.83
2023-01-31T21:42:53.426Z,18.83
2023-01-31T21:43:53.389Z,18.82
2023-01-31T21:44:53.357Z,18.80
2023-01-31T21:45:53.352Z,18.83
2023-01-31T21:46:53.304Z,18.84
2023-01-31T21:47:53.278Z,18.80
2023-01-31T21:48:53.245Z,18.83
2023-01-31T21:49:53.211Z,18.83
2023-01-31T21:50:53.168Z,18.84
2023-01-31T21:51:53.151Z,18.84
2023-01-31T21:52:53.121Z,18.82
2023-01-31T21:53:53.082Z,18.80
2023-01-31T21:54:53.038Z,18.82
2023-01-31T21:55:53.007Z,18.84
2023-01-31T21:56:52.974Z,18.83
2023-01-31T21:57:52.932Z,18.82
2023-01-31T21:58:52.961Z,18.83
2023-01-31T21:59:52.938Z,18.83
2023-01-31T22:00:52.891Z,18.83
2023-01-31T22:01:52.950Z,18.84
2023-01-31T22:02:52.856Z,18.84
2023-01-31T22:03:52.842Z,18.83
2023-01-31T22:04:52.756Z,18.83
2023-01-31T22:05:52.747Z,18.82
2023-01-31T22:06:52.712Z,18.83
2023-01-31T22:07:52.658Z,18.84
2023-01-31T22:08:52.628Z,18.83
2023-01-31T22:09:52.598Z,18.82
2023-01-31T22:10:52.567Z,18.83
2023-01-31T22:11:52.530Z,18.82
2023-01-31T22:12:53.482Z,18.84
2023-01-31T22:13:55.557Z,18.83
2023-01-31T22:14:52.402Z,18.82
2023-01-31T22:15:52.417Z,18.83
2023-01-31T22:16:52.243Z,18.83
2023-01-31T22:17:52.186Z,18.82
2023-01-31T22:18:52.095Z,18.83
2023-01-31T22:19:52.063Z,18.80
2023-01-31T22:20:51.936Z,18.82
2023-01-31T22:21:51.879Z,18.82
2023-01-31T22:22:51.778Z,18.83
2023-01-31T22:23:51.717Z,18.82
2023-01-31T22:24:51.645Z,18.83
2023-01-31T22:25:51.561Z,18.83
2023-01-31T22:26:51.583Z,18.83
